sensor_id;sensor_type;location;lat;lon;timestamp;pressure;altitude;pressure_sealevel;temperature;humidity
30618;BME280;17384;51.214;9.202;2023-03-21T00:00:58;98846.91;;;7.46;71.10
30618;BME280;17384;51.214;9.202;2023-03-21T00:03:24;98835.78;;;7.56;71.07
30618;BME280;17384;51.214;9.202;2023-03-21T00:05:50;98834.69;;;7.50;71.15
30618;BME280;17384;51.214;9.202;2023-03-21T00:08:19;98837.66;;;7.34;71.49
30618;BME280;17384;51.214;9.202;2023-03-21T00:10:45;98833.88;;;7.28;71.91
30618;BME280;17384;51.214;9.202;2023-03-21T00:13:14;98831.75;;;7.24;72.82
30618;BME280;17384;51.214;9.202;2023-03-21T00:15:40;98829.06;;;7.24;72.13
30618;BME280;17384;51.214;9.202;2023-03-21T00:18:18;98826.16;;;7.25;72.43
30618;BME280;17384;51.214;9.202;2023-03-21T00:21:00;98826.63;;;7.29;72.64
30618;BME280;17384;51.214;9.202;2023-03-21T00:23:26;98816.84;;;7.28;73.31
30618;BME280;17384;51.214;9.202;2023-03-21T00:25:53;98822.78;;;7.38;72.50
30618;BME280;17384;51.214;9.202;2023-03-21T00:28:18;98811.97;;;7.38;71.84
30618;BME280;17384;51.214;9.202;2023-03-21T00:30:44;98816.75;;;7.42;71.49
30618;BME280;17384;51.214;9.202;2023-03-21T00:33:09;98818.97;;;7.32;71.58
30618;BME280;17384;51.214;9.202;2023-03-21T00:35:37;98817.50;;;7.30;72.09
30618;BME280;17384;51.214;9.202;2023-03-21T00:38:03;98822.91;;;7.30;72.37
30618;BME280;17384;51.214;9.202;2023-03-21T00:40:29;98805.22;;;7.27;72.59
30618;BME280;17384;51.214;9.202;2023-03-21T00:42:55;98815.53;;;7.45;71.58
30618;BME280;17384;51.214;9.202;2023-03-21T00:45:20;98797.22;;;7.40;71.95
30618;BME280;17384;51.214;9.202;2023-03-21T00:47:46;98806.75;;;7.36;71.53
30618;BME280;17384;51.214;9.202;2023-03-21T00:50:12;98801.50;;;7.28;72.28
30618;BME280;17384;51.214;9.202;2023-03-21T00:52:38;98797.97;;;7.28;72.77
30618;BME280;17384;51.214;9.202;2023-03-21T00:55:04;98793.59;;;7.27;73.00
30618;BME280;17384;51.214;9.202;2023-03-21T00:57:31;98802.72;;;7.26;73.00
30618;BME280;17384;51.214;9.202;2023-03-21T00:59:56;98798.09;;;7.20;73.12
30618;BME280;17384;51.214;9.202;2023-03-21T01:02:25;98802.00;;;7.17;73.56
30618;BME280;17384;51.214;9.202;2023-03-21T01:04:51;98800.53;;;7.14;73.35
30618;BME280;17384;51.214;9.202;2023-03-21T01:07:17;98802.06;;;7.24;73.65
30618;BME280;17384;51.214;9.202;2023-03-21T01:09:42;98788.97;;;7.21;73.95
30618;BME280;17384;51.214;9.202;2023-03-21T01:12:08;98801.69;;;7.27;74.09
30618;BME280;17384;51.214;9.202;2023-03-21T01:14:34;98793.91;;;7.17;74.46
30618;BME280;17384;51.214;9.202;2023-03-21T01:17:00;98792.25;;;7.16;73.14
30618;BME280;17384;51.214;9.202;2023-03-21T01:19:26;98792.25;;;7.16;73.44
30618;BME280;17384;51.214;9.202;2023-03-21T01:21:52;98793.25;;;7.08;73.96
30618;BME280;17384;51.214;9.202;2023-03-21T01:24:18;98801.31;;;7.08;74.44
30618;BME280;17384;51.214;9.202;2023-03-21T01:26:44;98793.47;;;7.13;74.14
30618;BME280;17384;51.214;9.202;2023-03-21T01:29:09;98793.25;;;7.08;73.00
30618;BME280;17384;51.214;9.202;2023-03-21T01:31:35;98799.31;;;7.17;73.72
30618;BME280;17384;51.214;9.202;2023-03-21T01:34:01;98783.09;;;7.10;73.45
30618;BME280;17384;51.214;9.202;2023-03-21T01:36:26;98785.94;;;7.30;73.04
30618;BME280;17384;51.214;9.202;2023-03-21T01:38:52;98793.41;;;7.28;73.29
30618;BME280;17384;51.214;9.202;2023-03-21T01:41:32;98797.13;;;7.27;73.48
30618;BME280;17384;51.214;9.202;2023-03-21T01:43:58;98789.88;;;7.28;73.46
30618;BME280;17384;51.214;9.202;2023-03-21T01:46:37;98779.28;;;7.26;73.62
30618;BME280;17384;51.214;9.202;2023-03-21T01:49:12;98783.19;;;7.24;74.06
30618;BME280;17384;51.214;9.202;2023-03-21T01:51:46;98772.75;;;7.42;73.15
30618;BME280;17384;51.214;9.202;2023-03-21T01:54:16;98777.66;;;7.32;73.24
30618;BME280;17384;51.214;9.202;2023-03-21T01:56:45;98773.88;;;7.26;73.60
30618;BME280;17384;51.214;9.202;2023-03-21T01:59:29;98769.06;;;7.22;73.42
30618;BME280;17384;51.214;9.202;2023-03-21T02:02:00;98774.06;;;7.25;73.36
30618;BME280;17384;51.214;9.202;2023-03-21T02:04:32;98773.94;;;7.33;72.53
30618;BME280;17384;51.214;9.202;2023-03-21T02:07:03;98766.63;;;7.27;72.61
30618;BME280;17384;51.214;9.202;2023-03-21T02:09:32;98773.03;;;7.26;72.73
30618;BME280;17384;51.214;9.202;2023-03-21T02:11:59;98759.81;;;7.31;73.00
30618;BME280;17384;51.214;9.202;2023-03-21T02:14:25;98746.97;;;7.39;71.97
30618;BME280;17384;51.214;9.202;2023-03-21T02:20:02;98746.31;;;7.31;72.50
30618;BME280;17384;51.214;9.202;2023-03-21T02:28:04;98727.75;;;7.21;73.79
30618;BME280;17384;51.214;9.202;2023-03-21T02:39:11;98736.47;;;7.23;74.13
30618;BME280;17384;51.214;9.202;2023-03-21T02:41:53;98739.09;;;7.38;73.85
30618;BME280;17384;51.214;9.202;2023-03-21T02:47:40;98740.22;;;7.22;73.15
30618;BME280;17384;51.214;9.202;2023-03-21T02:50:25;98743.09;;;7.21;73.42
30618;BME280;17384;51.214;9.202;2023-03-21T02:52:45;98736.63;;;7.43;72.46
30618;BME280;17384;51.214;9.202;2023-03-21T02:55:16;98746.25;;;7.52;72.41
30618;BME280;17384;51.214;9.202;2023-03-21T02:57:46;98735.78;;;7.42;73.12
30618;BME280;17384;51.214;9.202;2023-03-21T03:00:19;98736.44;;;7.17;73.41
30618;BME280;17384;51.214;9.202;2023-03-21T03:02:46;98747.66;;;7.20;73.20
30618;BME280;17384;51.214;9.202;2023-03-21T03:05:35;98731.47;;;7.20;73.31
30618;BME280;17384;51.214;9.202;2023-03-21T03:11:25;98735.97;;;7.13;74.22
30618;BME280;17384;51.214;9.202;2023-03-21T03:15:11;98739.94;;;7.10;74.17
30618;BME280;17384;51.214;9.202;2023-03-21T03:20:14;98721.81;;;7.04;74.21
30618;BME280;17384;51.214;9.202;2023-03-21T03:23:04;98713.97;;;7.09;74.10
30618;BME280;17384;51.214;9.202;2023-03-21T03:25:38;98726.03;;;7.13;74.06
30618;BME280;17384;51.214;9.202;2023-03-21T03:28:07;98711.94;;;6.90;74.71
30618;BME280;17384;51.214;9.202;2023-03-21T03:30:35;98724.66;;;6.96;75.06
30618;BME280;17384;51.214;9.202;2023-03-21T03:33:02;98715.97;;;7.01;74.86
30618;BME280;17384;51.214;9.202;2023-03-21T03:35:30;98719.22;;;7.18;74.41
30618;BME280;17384;51.214;9.202;2023-03-21T03:37:59;98712.72;;;7.12;74.40
30618;BME280;17384;51.214;9.202;2023-03-21T03:40:47;98711.94;;;7.18;74.53
30618;BME280;17384;51.214;9.202;2023-03-21T03:43:17;98719.75;;;7.06;74.57
30618;BME280;17384;51.214;9.202;2023-03-21T03:45:51;98723.88;;;7.02;74.66
30618;BME280;17384;51.214;9.202;2023-03-21T03:48:24;98711.81;;;6.98;75.06
30618;BME280;17384;51.214;9.202;2023-03-21T03:50:57;98715.00;;;6.87;75.32
30618;BME280;17384;51.214;9.202;2023-03-21T03:53:33;98713.31;;;6.79;75.64
30618;BME280;17384;51.214;9.202;2023-03-21T03:56:02;98710.84;;;6.85;75.76
30618;BME280;17384;51.214;9.202;2023-03-21T03:58:28;98709.59;;;6.81;76.08
30618;BME280;17384;51.214;9.202;2023-03-21T04:00:55;98718.16;;;6.91;75.81
30618;BME280;17384;51.214;9.202;2023-03-21T04:03:21;98717.28;;;6.84;75.91
30618;BME280;17384;51.214;9.202;2023-03-21T04:05:46;98726.25;;;6.91;75.73
30618;BME280;17384;51.214;9.202;2023-03-21T04:08:13;98704.88;;;6.89;76.07
30618;BME280;17384;51.214;9.202;2023-03-21T04:10:40;98701.16;;;6.90;76.58
30618;BME280;17384;51.214;9.202;2023-03-21T04:13:06;98718.75;;;6.86;76.67
30618;BME280;17384;51.214;9.202;2023-03-21T04:15:32;98708.50;;;6.75;76.95
30618;BME280;17384;51.214;9.202;2023-03-21T04:17:58;98700.41;;;6.75;77.06
30618;BME280;17384;51.214;9.202;2023-03-21T04:20:23;98699.63;;;6.81;76.74
30618;BME280;17384;51.214;9.202;2023-03-21T04:22:49;98693.72;;;6.71;77.30
30618;BME280;17384;51.214;9.202;2023-03-21T04:25:15;98700.34;;;6.68;76.97
30618;BME280;17384;51.214;9.202;2023-03-21T04:27:41;98687.88;;;6.67;76.75
30618;BME280;17384;51.214;9.202;2023-03-21T04:30:07;98705.28;;;6.65;77.38
30618;BME280;17384;51.214;9.202;2023-03-21T04:32:34;98701.47;;;6.59;77.99
30618;BME280;17384;51.214;9.202;2023-03-21T04:35:04;98703.22;;;6.67;77.58
30618;BME280;17384;51.214;9.202;2023-03-21T04:37:30;98687.44;;;6.64;77.67
30618;BME280;17384;51.214;9.202;2023-03-21T04:39:58;98692.72;;;6.51;78.59
30618;BME280;17384;51.214;9.202;2023-03-21T04:42:23;98688.81;;;6.53;78.68
30618;BME280;17384;51.214;9.202;2023-03-21T04:44:49;98698.75;;;6.53;78.50
30618;BME280;17384;51.214;9.202;2023-03-21T04:47:15;98695.16;;;6.45;78.51
30618;BME280;17384;51.214;9.202;2023-03-21T04:49:42;98691.03;;;6.50;78.59
30618;BME280;17384;51.214;9.202;2023-03-21T04:52:07;98687.06;;;6.45;78.71
30618;BME280;17384;51.214;9.202;2023-03-21T04:54:33;98693.66;;;6.43;79.05
30618;BME280;17384;51.214;9.202;2023-03-21T04:56:58;98680.13;;;6.36;78.59
30618;BME280;17384;51.214;9.202;2023-03-21T04:59:24;98692.44;;;6.45;78.60
30618;BME280;17384;51.214;9.202;2023-03-21T05:01:50;98689.88;;;6.37;78.82
30618;BME280;17384;51.214;9.202;2023-03-21T05:04:16;98687.19;;;6.37;78.71
30618;BME280;17384;51.214;9.202;2023-03-21T05:06:43;98694.41;;;6.37;78.98
30618;BME280;17384;51.214;9.202;2023-03-21T05:09:11;98692.81;;;6.42;78.98
30618;BME280;17384;51.214;9.202;2023-03-21T05:11:38;98687.88;;;6.46;78.90
30618;BME280;17384;51.214;9.202;2023-03-21T05:14:07;98681.03;;;6.43;78.64
30618;BME280;17384;51.214;9.202;2023-03-21T05:16:34;98683.06;;;6.41;78.96
30618;BME280;17384;51.214;9.202;2023-03-21T05:19:01;98689.69;;;6.39;78.43
30618;BME280;17384;51.214;9.202;2023-03-21T05:21:32;98687.56;;;6.34;79.03
30618;BME280;17384;51.214;9.202;2023-03-21T05:24:06;98681.59;;;6.39;79.09
30618;BME280;17384;51.214;9.202;2023-03-21T05:26:37;98685.69;;;6.35;79.64
30618;BME280;17384;51.214;9.202;2023-03-21T05:29:02;98691.03;;;6.28;80.13
30618;BME280;17384;51.214;9.202;2023-03-21T05:31:28;98685.78;;;6.41;79.14
30618;BME280;17384;51.214;9.202;2023-03-21T05:33:53;98696.34;;;6.43;79.17
30618;BME280;17384;51.214;9.202;2023-03-21T05:36:19;98692.53;;;6.52;78.39
30618;BME280;17384;51.214;9.202;2023-03-21T05:38:45;98690.88;;;6.36;78.54
30618;BME280;17384;51.214;9.202;2023-03-21T05:41:15;98689.69;;;6.39;79.04
30618;BME280;17384;51.214;9.202;2023-03-21T05:43:40;98689.56;;;6.47;79.20
30618;BME280;17384;51.214;9.202;2023-03-21T05:46:06;98681.94;;;6.51;78.88
30618;BME280;17384;51.214;9.202;2023-03-21T05:48:32;98698.47;;;6.48;78.92
30618;BME280;17384;51.214;9.202;2023-03-21T05:50:59;98698.94;;;6.51;79.06
30618;BME280;17384;51.214;9.202;2023-03-21T05:53:25;98699.50;;;6.47;79.01
30618;BME280;17384;51.214;9.202;2023-03-21T05:55:50;98688.81;;;6.53;79.01
30618;BME280;17384;51.214;9.202;2023-03-21T05:58:16;98685.91;;;6.55;78.70
30618;BME280;17384;51.214;9.202;2023-03-21T06:00:41;98692.72;;;6.51;78.97
30618;BME280;17384;51.214;9.202;2023-03-21T06:03:07;98695.25;;;6.59;78.55
30618;BME280;17384;51.214;9.202;2023-03-21T06:05:32;98689.03;;;6.58;78.54
30618;BME280;17384;51.214;9.202;2023-03-21T06:07:57;98682.03;;;6.64;78.47
30618;BME280;17384;51.214;9.202;2023-03-21T06:10:23;98685.38;;;6.66;78.35
30618;BME280;17384;51.214;9.202;2023-03-21T06:12:48;98686.41;;;6.65;77.92
30618;BME280;17384;51.214;9.202;2023-03-21T06:15:14;98707.00;;;6.72;77.77
30618;BME280;17384;51.214;9.202;2023-03-21T06:17:40;98700.72;;;6.65;77.71
30618;BME280;17384;51.214;9.202;2023-03-21T06:20:06;98691.03;;;6.71;77.39
30618;BME280;17384;51.214;9.202;2023-03-21T06:22:33;98706.81;;;6.74;77.35
30618;BME280;17384;51.214;9.202;2023-03-21T06:24:58;98692.75;;;6.78;76.81
30618;BME280;17384;51.214;9.202;2023-03-21T06:27:25;98703.00;;;6.90;76.62
30618;BME280;17384;51.214;9.202;2023-03-21T06:29:50;98706.72;;;6.89;76.39
30618;BME280;17384;51.214;9.202;2023-03-21T06:32:16;98704.59;;;6.84;76.65
30618;BME280;17384;51.214;9.202;2023-03-21T06:34:42;98705.44;;;6.85;77.08
30618;BME280;17384;51.214;9.202;2023-03-21T06:37:07;98709.03;;;6.92;76.57
30618;BME280;17384;51.214;9.202;2023-03-21T06:39:33;98710.72;;;6.93;76.91
30618;BME280;17384;51.214;9.202;2023-03-21T06:42:01;98715.41;;;7.05;76.09
30618;BME280;17384;51.214;9.202;2023-03-21T06:44:27;98717.53;;;7.17;76.47
30618;BME280;17384;51.214;9.202;2023-03-21T06:46:53;98726.66;;;7.16;76.28
30618;BME280;17384;51.214;9.202;2023-03-21T06:49:19;98716.56;;;7.24;76.03
30618;BME280;17384;51.214;9.202;2023-03-21T06:51:47;98714.00;;;7.16;75.82
30618;BME280;17384;51.214;9.202;2023-03-21T06:54:12;98711.75;;;7.20;75.48
30618;BME280;17384;51.214;9.202;2023-03-21T06:56:39;98723.31;;;7.41;75.25
30618;BME280;17384;51.214;9.202;2023-03-21T06:59:04;98721.41;;;7.63;74.63
30618;BME280;17384;51.214;9.202;2023-03-21T07:01:30;98708.97;;;7.69;74.04
30618;BME280;17384;51.214;9.202;2023-03-21T07:03:56;98711.78;;;7.89;73.07
30618;BME280;17384;51.214;9.202;2023-03-21T07:06:23;98707.47;;;8.01;73.17
30618;BME280;17384;51.214;9.202;2023-03-21T07:08:51;98712.22;;;7.99;72.69
30618;BME280;17384;51.214;9.202;2023-03-21T07:11:17;98709.28;;;7.94;72.29
30618;BME280;17384;51.214;9.202;2023-03-21T07:13:43;98706.19;;;7.97;72.33
30618;BME280;17384;51.214;9.202;2023-03-21T07:16:09;98702.25;;;7.99;72.92
30618;BME280;17384;51.214;9.202;2023-03-21T07:18:34;98701.25;;;8.07;72.36
30618;BME280;17384;51.214;9.202;2023-03-21T07:21:00;98713.31;;;8.11;72.38
30618;BME280;17384;51.214;9.202;2023-03-21T07:23:26;98693.19;;;8.13;72.58
30618;BME280;17384;51.214;9.202;2023-03-21T07:25:53;98705.25;;;8.18;71.78
30618;BME280;17384;51.214;9.202;2023-03-21T07:28:19;98710.88;;;8.29;71.39
30618;BME280;17384;51.214;9.202;2023-03-21T07:30:54;98696.31;;;8.24;72.52
30618;BME280;17384;51.214;9.202;2023-03-21T07:33:20;98701.38;;;8.33;72.12
30618;BME280;17384;51.214;9.202;2023-03-21T07:35:50;98701.13;;;8.28;71.21
30618;BME280;17384;51.214;9.202;2023-03-21T07:38:16;98696.09;;;8.12;72.85
30618;BME280;17384;51.214;9.202;2023-03-21T07:40:43;98689.66;;;8.26;72.96
30618;BME280;17384;51.214;9.202;2023-03-21T07:43:09;98693.59;;;8.10;72.12
30618;BME280;17384;51.214;9.202;2023-03-21T07:45:34;98700.06;;;8.16;72.18
30618;BME280;17384;51.214;9.202;2023-03-21T07:48:00;98685.72;;;8.29;72.79
30618;BME280;17384;51.214;9.202;2023-03-21T07:50:26;98690.06;;;8.23;72.00
30618;BME280;17384;51.214;9.202;2023-03-21T07:52:52;98694.66;;;8.16;72.33
30618;BME280;17384;51.214;9.202;2023-03-21T07:55:18;98710.22;;;8.14;72.12
30618;BME280;17384;51.214;9.202;2023-03-21T07:57:44;98697.97;;;8.18;72.48
30618;BME280;17384;51.214;9.202;2023-03-21T08:00:11;98697.22;;;8.37;72.12
30618;BME280;17384;51.214;9.202;2023-03-21T08:02:37;98703.53;;;8.71;71.19
30618;BME280;17384;51.214;9.202;2023-03-21T08:05:03;98703.72;;;8.76;71.35
30618;BME280;17384;51.214;9.202;2023-03-21T08:07:29;98707.06;;;8.78;70.76
30618;BME280;17384;51.214;9.202;2023-03-21T08:09:55;98708.13;;;8.83;70.25
30618;BME280;17384;51.214;9.202;2023-03-21T08:12:20;98695.03;;;8.74;70.37
30618;BME280;17384;51.214;9.202;2023-03-21T08:14:46;98701.47;;;8.73;70.79
30618;BME280;17384;51.214;9.202;2023-03-21T08:17:11;98708.72;;;8.79;71.52
30618;BME280;17384;51.214;9.202;2023-03-21T08:19:37;98687.31;;;9.04;71.33
30618;BME280;17384;51.214;9.202;2023-03-21T08:22:03;98702.69;;;8.77;70.71
30618;BME280;17384;51.214;9.202;2023-03-21T08:24:31;98698.53;;;8.81;70.95
30618;BME280;17384;51.214;9.202;2023-03-21T08:26:58;98690.22;;;8.89;71.03
30618;BME280;17384;51.214;9.202;2023-03-21T08:29:24;98679.19;;;9.10;71.98
30618;BME280;17384;51.214;9.202;2023-03-21T08:31:50;98683.16;;;9.21;70.55
30618;BME280;17384;51.214;9.202;2023-03-21T08:34:15;98691.47;;;8.87;70.94
30618;BME280;17384;51.214;9.202;2023-03-21T08:36:44;98690.00;;;8.84;70.71
30618;BME280;17384;51.214;9.202;2023-03-21T08:39:11;98676.91;;;9.21;70.51
30618;BME280;17384;51.214;9.202;2023-03-21T08:41:37;98679.38;;;9.35;69.74
30618;BME280;17384;51.214;9.202;2023-03-21T08:44:04;98685.41;;;9.31;69.92
30618;BME280;17384;51.214;9.202;2023-03-21T08:46:30;98693.88;;;9.74;68.55
30618;BME280;17384;51.214;9.202;2023-03-21T08:48:56;98692.97;;;10.00;68.54
30618;BME280;17384;51.214;9.202;2023-03-21T08:51:21;98687.16;;;10.41;66.87
30618;BME280;17384;51.214;9.202;2023-03-21T08:53:47;98682.13;;;10.44;66.58
30618;BME280;17384;51.214;9.202;2023-03-21T08:56:15;98693.88;;;10.38;67.26
30618;BME280;17384;51.214;9.202;2023-03-21T08:58:41;98686.47;;;10.52;64.99
30618;BME280;17384;51.214;9.202;2023-03-21T09:01:06;98690.53;;;10.68;65.81
30618;BME280;17384;51.214;9.202;2023-03-21T09:03:35;98685.16;;;11.17;65.13
30618;BME280;17384;51.214;9.202;2023-03-21T09:06:01;98682.88;;;11.14;65.15
30618;BME280;17384;51.214;9.202;2023-03-21T09:08:26;98678.81;;;11.24;63.70
30618;BME280;17384;51.214;9.202;2023-03-21T09:10:52;98694.63;;;10.83;65.49
30618;BME280;17384;51.214;9.202;2023-03-21T09:13:19;98680.16;;;10.90;65.01
30618;BME280;17384;51.214;9.202;2023-03-21T09:15:45;98679.84;;;11.04;65.02
30618;BME280;17384;51.214;9.202;2023-03-21T09:18:10;98679.34;;;11.14;65.64
30618;BME280;17384;51.214;9.202;2023-03-21T09:20:44;98682.88;;;10.90;63.93
30618;BME280;17384;51.214;9.202;2023-03-21T09:23:11;98680.22;;;10.83;64.79
30618;BME280;17384;51.214;9.202;2023-03-21T09:25:38;98688.00;;;10.73;64.76
30618;BME280;17384;51.214;9.202;2023-03-21T09:28:04;98678.63;;;10.69;65.78
30618;BME280;17384;51.214;9.202;2023-03-21T09:30:32;98673.81;;;10.71;65.66
30618;BME280;17384;51.214;9.202;2023-03-21T09:32:59;98683.97;;;10.82;64.91
30618;BME280;17384;51.214;9.202;2023-03-21T09:35:25;98678.00;;;10.67;66.15
30618;BME280;17384;51.214;9.202;2023-03-21T09:37:52;98678.97;;;10.79;65.31
30618;BME280;17384;51.214;9.202;2023-03-21T09:40:22;98681.88;;;11.09;65.94
30618;BME280;17384;51.214;9.202;2023-03-21T09:43:05;98681.63;;;11.17;65.79
30618;BME280;17384;51.214;9.202;2023-03-21T09:45:45;98672.47;;;11.11;65.52
30618;BME280;17384;51.214;9.202;2023-03-21T09:48:25;98674.59;;;10.78;64.93
30618;BME280;17384;51.214;9.202;2023-03-21T09:50:56;98666.22;;;11.11;64.12
30618;BME280;17384;51.214;9.202;2023-03-21T09:53:27;98675.97;;;11.18;64.55
30618;BME280;17384;51.214;9.202;2023-03-21T09:55:55;98671.97;;;11.21;64.29
30618;BME280;17384;51.214;9.202;2023-03-21T09:58:43;98672.75;;;11.03;64.47
30618;BME280;17384;51.214;9.202;2023-03-21T10:01:32;98667.31;;;11.03;65.52
30618;BME280;17384;51.214;9.202;2023-03-21T10:04:07;98671.59;;;10.93;65.49
30618;BME280;17384;51.214;9.202;2023-03-21T10:06:37;98672.97;;;11.02;65.68
30618;BME280;17384;51.214;9.202;2023-03-21T10:09:17;98663.44;;;11.17;65.17
30618;BME280;17384;51.214;9.202;2023-03-21T10:11:50;98664.31;;;11.11;65.16
30618;BME280;17384;51.214;9.202;2023-03-21T10:14:27;98664.28;;;11.18;64.20
30618;BME280;17384;51.214;9.202;2023-03-21T10:17:02;98666.47;;;11.28;64.65
30618;BME280;17384;51.214;9.202;2023-03-21T10:19:28;98655.00;;;11.26;64.81
30618;BME280;17384;51.214;9.202;2023-03-21T10:21:55;98662.38;;;11.18;65.30
30618;BME280;17384;51.214;9.202;2023-03-21T10:24:23;98661.69;;;11.23;66.35
30618;BME280;17384;51.214;9.202;2023-03-21T10:26:51;98661.56;;;10.93;66.95
30618;BME280;17384;51.214;9.202;2023-03-21T10:29:21;98664.16;;;10.81;66.55
30618;BME280;17384;51.214;9.202;2023-03-21T10:31:49;98664.19;;;10.75;68.38
30618;BME280;17384;51.214;9.202;2023-03-21T10:34:40;98664.38;;;10.80;69.40
30618;BME280;17384;51.214;9.202;2023-03-21T10:37:06;98670.59;;;10.87;68.69
30618;BME280;17384;51.214;9.202;2023-03-21T10:39:35;98667.09;;;10.80;70.48
30618;BME280;17384;51.214;9.202;2023-03-21T10:42:02;98660.34;;;10.89;71.52
30618;BME280;17384;51.214;9.202;2023-03-21T10:44:29;98662.63;;;10.61;69.47
30618;BME280;17384;51.214;9.202;2023-03-21T10:47:05;98661.00;;;10.53;69.22
30618;BME280;17384;51.214;9.202;2023-03-21T10:49:31;98654.56;;;10.47;70.35
30618;BME280;17384;51.214;9.202;2023-03-21T10:51:58;98659.44;;;10.39;70.03
30618;BME280;17384;51.214;9.202;2023-03-21T10:54:28;98663.41;;;10.36;71.94
30618;BME280;17384;51.214;9.202;2023-03-21T10:57:03;98655.72;;;10.33;72.64
30618;BME280;17384;51.214;9.202;2023-03-21T10:59:39;98656.56;;;10.34;72.30
30618;BME280;17384;51.214;9.202;2023-03-21T11:02:17;98653.88;;;10.27;73.58
30618;BME280;17384;51.214;9.202;2023-03-21T11:04:44;98660.16;;;10.21;74.29
30618;BME280;17384;51.214;9.202;2023-03-21T11:07:13;98661.78;;;10.29;74.35
30618;BME280;17384;51.214;9.202;2023-03-21T11:09:47;98664.19;;;10.43;76.41
30618;BME280;17384;51.214;9.202;2023-03-21T11:12:16;98663.97;;;10.45;74.39
30618;BME280;17384;51.214;9.202;2023-03-21T11:14:48;98653.41;;;10.37;74.38
30618;BME280;17384;51.214;9.202;2023-03-21T11:19:51;98653.69;;;10.22;75.93
30618;BME280;17384;51.214;9.202;2023-03-21T11:22:19;98659.53;;;10.12;76.32
30618;BME280;17384;51.214;9.202;2023-03-21T11:24:51;98645.31;;;10.17;76.31
30618;BME280;17384;51.214;9.202;2023-03-21T11:27:17;98657.91;;;10.05;74.81
30618;BME280;17384;51.214;9.202;2023-03-21T11:29:48;98658.34;;;10.02;75.20
30618;BME280;17384;51.214;9.202;2023-03-21T11:32:34;98664.63;;;9.96;75.77
30618;BME280;17384;51.214;9.202;2023-03-21T11:35:06;98662.22;;;9.68;76.78
30618;BME280;17384;51.214;9.202;2023-03-21T11:37:41;98651.75;;;9.84;76.15
30618;BME280;17384;51.214;9.202;2023-03-21T11:40:26;98655.22;;;10.05;76.30
30618;BME280;17384;51.214;9.202;2023-03-21T11:42:54;98653.69;;;10.22;75.40
30618;BME280;17384;51.214;9.202;2023-03-21T11:45:23;98645.88;;;9.94;74.79
30618;BME280;17384;51.214;9.202;2023-03-21T11:47:51;98644.19;;;10.00;76.18
30618;BME280;17384;51.214;9.202;2023-03-21T11:55:47;98645.31;;;10.30;75.79
30618;BME280;17384;51.214;9.202;2023-03-21T12:00:51;98641.75;;;10.30;76.13
30618;BME280;17384;51.214;9.202;2023-03-21T12:05:53;98618.38;;;10.35;76.70
30618;BME280;17384;51.214;9.202;2023-03-21T12:11:40;98621.69;;;10.37;75.53
30618;BME280;17384;51.214;9.202;2023-03-21T12:17:32;98617.00;;;10.13;77.09
30618;BME280;17384;51.214;9.202;2023-03-21T12:25:41;98607.50;;;9.97;78.45
30618;BME280;17384;51.214;9.202;2023-03-21T12:31:06;98600.41;;;9.96;78.35
30618;BME280;17384;51.214;9.202;2023-03-21T12:39:07;98596.34;;;9.74;80.21
30618;BME280;17384;51.214;9.202;2023-03-21T12:41:43;98591.59;;;9.63;79.30
30618;BME280;17384;51.214;9.202;2023-03-21T12:44:15;98588.50;;;9.59;79.99
30618;BME280;17384;51.214;9.202;2023-03-21T12:46:52;98580.75;;;9.69;80.74
30618;BME280;17384;51.214;9.202;2023-03-21T12:49:31;98580.56;;;9.64;80.34
30618;BME280;17384;51.214;9.202;2023-03-21T12:52:04;98578.06;;;9.63;81.41
30618;BME280;17384;51.214;9.202;2023-03-21T12:54:40;98578.41;;;9.79;80.99
30618;BME280;17384;51.214;9.202;2023-03-21T12:57:16;98578.41;;;9.79;80.49
30618;BME280;17384;51.214;9.202;2023-03-21T12:59:49;98583.03;;;9.72;81.37
30618;BME280;17384;51.214;9.202;2023-03-21T13:02:25;98576.78;;;9.72;82.06
30618;BME280;17384;51.214;9.202;2023-03-21T13:04:56;98572.50;;;9.51;81.99
30618;BME280;17384;51.214;9.202;2023-03-21T13:07:25;98571.47;;;9.45;82.99
30618;BME280;17384;51.214;9.202;2023-03-21T13:09:51;98575.34;;;9.63;83.33
30618;BME280;17384;51.214;9.202;2023-03-21T13:15:33;98562.63;;;9.63;82.92
30618;BME280;17384;51.214;9.202;2023-03-21T13:18:48;98555.47;;;9.37;84.06
30618;BME280;17384;51.214;9.202;2023-03-21T13:20:53;98559.63;;;9.40;83.70
30618;BME280;17384;51.214;9.202;2023-03-21T13:23:22;98556.06;;;9.46;83.18
30618;BME280;17384;51.214;9.202;2023-03-21T13:25:50;98550.25;;;9.36;83.21
30618;BME280;17384;51.214;9.202;2023-03-21T13:28:32;98551.13;;;9.30;83.09
30618;BME280;17384;51.214;9.202;2023-03-21T13:31:16;98538.81;;;9.34;84.73
30618;BME280;17384;51.214;9.202;2023-03-21T13:33:46;98539.63;;;9.41;82.98
30618;BME280;17384;51.214;9.202;2023-03-21T13:36:21;98541.09;;;9.37;83.73
30618;BME280;17384;51.214;9.202;2023-03-21T13:38:53;98529.84;;;9.33;84.53
30618;BME280;17384;51.214;9.202;2023-03-21T13:41:41;98545.66;;;9.43;82.71
30618;BME280;17384;51.214;9.202;2023-03-21T13:44:21;98535.63;;;9.50;83.48
30618;BME280;17384;51.214;9.202;2023-03-21T13:46:54;98520.06;;;9.39;83.07
30618;BME280;17384;51.214;9.202;2023-03-21T13:49:26;98523.81;;;9.38;83.62
30618;BME280;17384;51.214;9.202;2023-03-21T13:51:55;98524.00;;;9.43;83.67
30618;BME280;17384;51.214;9.202;2023-03-21T13:54:25;98522.72;;;9.52;83.21
30618;BME280;17384;51.214;9.202;2023-03-21T13:56:56;98515.28;;;9.34;83.34
30618;BME280;17384;51.214;9.202;2023-03-21T13:59:36;98517.41;;;9.26;84.14
30618;BME280;17384;51.214;9.202;2023-03-21T14:04:40;98510.13;;;9.26;83.99
30618;BME280;17384;51.214;9.202;2023-03-21T14:07:14;98496.81;;;9.25;83.91
30618;BME280;17384;51.214;9.202;2023-03-21T14:09:48;98504.94;;;9.18;83.93
30618;BME280;17384;51.214;9.202;2023-03-21T14:12:21;98507.19;;;9.28;84.46
30618;BME280;17384;51.214;9.202;2023-03-21T14:14:57;98505.47;;;9.40;84.10
30618;BME280;17384;51.214;9.202;2023-03-21T14:17:25;98514.31;;;9.60;83.90
30618;BME280;17384;51.214;9.202;2023-03-21T14:19:59;98508.69;;;9.62;84.11
30618;BME280;17384;51.214;9.202;2023-03-21T14:22:25;98498.34;;;9.52;83.74
30618;BME280;17384;51.214;9.202;2023-03-21T14:24:58;98501.13;;;9.32;84.05